Hingham, Wisconsin
Current Conditions -  °F | °C
As of 6:01 AM on Sunday 23 Nov 2014 (Local Time) from KSBM Reporting Station
Haze Haze  
Wind Chill: 44°   Ceiling: 900
Heat Index: 47°   Visibility: 3mi
Dew Point: 46°   Wind: 7mph
Humidity: 97%   Direction: 170°S
Pressure: 29.68"   Gusts: NA
Location:  43.64°N, 87.91°W
Report Text: KSBM 231201Z AUTO 17006KT 3SM BR OVC009 08/08 A2968 RMK AO2 CIG 005V011 T00830078
Loading
Personal Weather Stations






























Interactive Weather Map New forecast layout! Learn more

10-Day Weather Forecast

Advertisements
Track Severe Weather on mobile